RJNG(METAR)
10/16 18:00
METAR RJNG 160900Z 27005KT 9999 FEW030 18/09 Q1022 RMK 1CU030 A3019=
戻る
トップページへ戻る
IMOC Co,.Ltd.